Time;durP1;ratioP1;P1;durP2;ratioP2;P2;SDS_P1;SDS_P2;PMS_P1;PMS_P2;Temp;Humidity;BMP_temperature;BMP_pressure;BME280_temperature;BME280_humidity;BME280_pressure;Samples;Min_cycle;Max_cycle;Signal;HPM_P1;HPM_P2
2021/07/24 00:01:16;;;;;;;15.00;11.73;;;;;;;17.14;84.07;99030.79;4442843;79;21043;-82
2021/07/24 00:07:17;;;;;;;18.73;12.95;;;;;;;17.01;84.26;99026.42;4449234;79;20994;-81
2021/07/24 00:13:21;;;;;;;17.32;12.05;;;;;;;16.95;84.31;99025.33;4447680;79;21072;-81
2021/07/24 00:19:23;;;;;;;20.08;13.08;;;;;;;16.93;84.72;99029.11;4458034;79;21032;-82
2021/07/24 00:25:24;;;;;;;19.62;13.18;;;;;;;16.82;84.80;99012.47;4443734;79;21095;-82
2021/07/24 00:31:26;;;;;;;26.60;12.07;;;;;;;16.69;84.96;99015.63;4454217;79;21008;-84
2021/07/24 00:37:29;;;;;;;20.82;11.88;;;;;;;16.60;85.06;99011.97;4456178;79;21086;-82
2021/07/24 00:43:35;;;;;;;17.15;12.75;;;;;;;16.45;85.40;99007.83;4452255;79;21002;-82
2021/07/24 00:49:38;;;;;;;16.17;12.13;;;;;;;16.37;85.55;98999.41;4455158;79;21065;-82
2021/07/24 00:55:40;;;;;;;20.80;13.15;;;;;;;16.49;86.26;99002.27;4447755;79;21493;-81
2021/07/24 01:01:45;;;;;;;22.32;11.80;;;;;;;16.63;86.78;99004.85;4428173;79;20971;-82
2021/07/24 01:07:48;;;;;;;22.30;13.43;;;;;;;16.67;86.12;99005.58;4438177;79;20987;-83
2021/07/24 01:13:50;;;;;;;20.92;13.10;;;;;;;16.46;85.91;99007.24;4424005;79;21030;-81
2021/07/24 01:19:52;;;;;;;17.70;12.70;;;;;;;16.29;86.05;98997.92;4429548;79;21056;-82
2021/07/24 01:25:54;;;;;;;22.70;12.98;;;;;;;16.16;86.21;98987.83;4427274;79;21064;-82
2021/07/24 01:32:36;;;;;;;20.25;12.93;;;;;;;16.06;86.40;98991.48;4421946;79;21028;-82
2021/07/24 01:38:40;;;;;;;22.90;13.58;;;;;;;15.99;86.58;98995.72;4429611;78;21491;-82
2021/07/24 01:44:43;;;;;;;17.50;12.88;;;;;;;15.88;86.48;98989.52;4438400;79;21540;-82
2021/07/24 01:57:09;;;;;;;19.62;12.80;;;;;;;15.56;86.88;98975.44;4414657;78;21070;-82
2021/07/24 02:03:16;;;;;;;20.40;12.85;;;;;;;15.55;87.45;98977.22;4379985;79;20992;-82
2021/07/24 02:09:29;;;;;;;18.07;12.68;;;;;;;15.72;88.17;98978.23;4372349;79;21086;-82
2021/07/24 02:22:19;;;;;;;26.60;13.90;;;;;;;15.91;88.23;98977.66;4106399;83;21043;-83
2021/07/24 02:28:23;;;;;;;18.40;13.28;;;;;;;15.94;88.38;98974.07;4189706;83;21056;-83
2021/07/24 02:34:26;;;;;;;20.88;14.30;;;;;;;15.97;88.22;98974.63;4188869;83;21047;-82
2021/07/24 02:40:27;;;;;;;26.95;13.88;;;;;;;15.67;87.51;98973.95;4178216;83;21612;-82
2021/07/24 02:46:30;;;;;;;22.50;14.07;;;;;;;15.48;88.13;98980.03;4176894;83;21007;-83
2021/07/24 02:52:34;;;;;;;21.02;14.15;;;;;;;15.56;88.27;98982.34;4184600;83;21522;-82
2021/07/24 02:58:36;;;;;;;24.57;14.58;;;;;;;15.45;88.26;98985.78;4328984;79;21063;-82
2021/07/24 03:04:37;;;;;;;18.25;13.43;;;;;;;15.32;88.25;98988.80;4387329;79;21076;-82
2021/07/24 03:10:38;;;;;;;19.95;12.95;;;;;;;15.29;88.41;98986.86;4419246;79;21062;-82
2021/07/24 03:16:39;;;;;;;15.80;12.90;;;;;;;15.34;88.52;98991.16;4414272;79;21556;-84
2021/07/24 03:22:40;;;;;;;17.07;12.78;;;;;;;15.16;88.52;98993.28;4414073;79;20952;-83
2021/07/24 03:28:42;;;;;;;21.37;15.32;;;;;;;15.05;88.50;98996.70;4417192;79;21048;-83
2021/07/24 03:34:43;;;;;;;18.10;14.05;;;;;;;15.00;88.70;98992.98;4415876;79;20968;-83
2021/07/24 03:40:44;;;;;;;19.50;13.78;;;;;;;14.93;88.87;98991.64;4419118;80;21038;-84
2021/07/24 03:46:46;;;;;;;19.82;12.93;;;;;;;14.92;88.97;98990.88;4417144;79;21429;-83
2021/07/24 03:52:47;;;;;;;17.90;12.78;;;;;;;14.99;89.64;98996.33;4385564;79;34081;-83
2021/07/24 03:58:52;;;;;;;20.88;13.15;;;;;;;15.17;90.12;99000.34;4180854;83;21093;-84
2021/07/24 04:05:01;;;;;;;20.27;13.62;;;;;;;15.31;90.17;98997.48;4181202;83;21061;-83
2021/07/24 04:11:05;;;;;;;19.90;13.25;;;;;;;15.44;90.13;99004.88;4174616;83;21006;-83
2021/07/24 04:17:07;;;;;;;19.45;13.85;;;;;;;15.50;89.67;99001.11;4184029;83;21070;-83
2021/07/24 04:23:09;;;;;;;19.10;13.35;;;;;;;15.51;90.14;99003.45;4193456;83;21670;-83
2021/07/24 04:29:10;;;;;;;21.40;15.10;;;;;;;15.53;90.08;98998.30;4198011;83;21720;-84
2021/07/24 04:35:13;;;;;;;19.73;14.15;;;;;;;15.55;90.20;98995.16;4131464;85;21383;-83
2021/07/24 04:41:18;;;;;;;27.45;13.75;;;;;;;15.62;90.45;98996.45;4069224;86;21047;-83
2021/07/24 04:47:19;;;;;;;19.98;13.78;;;;;;;15.78;90.79;98989.02;4124008;84;21558;-84
2021/07/24 04:53:20;;;;;;;19.55;13.10;;;;;;;15.96;90.64;98991.78;4042412;87;21475;-83
2021/07/24 04:59:35;;;;;;;19.10;13.70;;;;;;;16.12;90.65;98988.45;4139981;85;21082;-83
2021/07/24 05:05:38;;;;;;;19.90;14.50;;;;;;;16.20;90.65;98987.97;4150731;84;21056;-83
2021/07/24 05:11:39;;;;;;;20.45;14.35;;;;;;;16.29;90.74;98985.49;4150822;84;21530;-82
2021/07/24 05:18:01;;;;;;;22.35;15.15;;;;;;;16.39;90.76;98984.59;4127325;85;21066;-82
2021/07/24 05:24:02;;;;;;;21.57;14.18;;;;;;;16.55;90.81;98976.50;4131348;85;21023;-82
2021/07/24 05:30:06;;;;;;;18.65;13.38;;;;;;;16.74;90.72;98975.09;4064590;86;21084;-84
2021/07/24 05:36:07;;;;;;;19.87;13.70;;;;;;;16.97;90.72;98980.08;4069805;86;21611;-83
2021/07/24 05:42:08;;;;;;;24.25;17.15;;;;;;;17.27;90.68;98983.38;4070064;86;21687;-82
2021/07/24 05:48:09;;;;;;;21.55;17.48;;;;;;;17.47;90.42;98982.08;4072379;86;21108;-82
2021/07/24 06:09:53;;;;;;;22.45;17.02;;;;;;;18.52;90.20;98973.98;4377431;80;22855;-86
2021/07/24 06:15:55;;;;;;;22.20;15.68;;;;;;;18.62;89.69;98985.43;4274367;82;21061;-87
2021/07/24 06:21:56;;;;;;;23.70;16.90;;;;;;;18.64;89.51;98976.09;4274703;81;21037;-86
2021/07/24 06:28:00;;;;;;;23.95;15.98;;;;;;;18.79;89.42;98971.62;4300576;81;21039;-86
2021/07/24 06:34:05;;;;;;;21.80;14.45;;;;;;;18.97;89.08;98969.21;4348788;80;21010;-87
2021/07/24 06:40:07;;;;;;;19.30;15.72;;;;;;;19.14;88.78;98959.09;4305955;81;21078;-86
2021/07/24 06:46:10;;;;;;;18.02;14.13;;;;;;;19.34;88.80;98966.00;4305400;81;21464;-86
2021/07/24 06:52:12;;;;;;;20.75;15.13;;;;;;;19.54;88.13;98963.91;4300956;81;21059;-86
2021/07/24 06:58:14;;;;;;;17.30;12.78;;;;;;;19.76;87.21;98971.86;4351358;80;21394;-86
2021/07/24 07:04:15;;;;;;;19.48;12.82;;;;;;;20.06;87.15;98969.44;4303679;81;21009;-88
2021/07/24 07:10:18;;;;;;;17.37;10.93;;;;;;;20.47;86.76;98967.95;4249393;82;21067;-87
2021/07/24 07:16:21;;;;;;;16.55;12.40;;;;;;;20.82;86.48;98968.27;4248292;82;21048;-87
2021/07/24 07:22:24;;;;;;;16.73;12.68;;;;;;;21.00;85.11;98956.78;4250980;83;21492;-87
2021/07/24 07:28:25;;;;;;;19.40;11.88;;;;;;;21.26;84.61;98964.52;4258662;82;21029;-87
2021/07/24 07:34:26;;;;;;;12.00;10.38;;;;;;;21.68;83.98;98960.31;4261049;82;21079;-87
2021/07/24 07:40:27;;;;;;;14.58;11.10;;;;;;;22.02;82.69;98956.80;4260151;83;21622;-87
2021/07/24 07:46:29;;;;;;;13.00;10.43;;;;;;;22.63;82.31;98962.53;4258188;83;21037;-87
2021/07/24 07:52:31;;;;;;;15.23;10.28;;;;;;;23.21;81.21;98959.99;4331614;81;20999;-87
2021/07/24 07:58:33;;;;;;;13.88;10.30;;;;;;;23.82;80.15;98962.50;4251025;82;21595;-86
2021/07/24 08:04:34;;;;;;;11.65;9.00;;;;;;;24.36;78.93;98964.70;4250530;82;21072;-88
2021/07/24 08:10:44;;;;;;;11.75;9.05;;;;;;;24.61;78.20;98961.55;4285242;81;20976;-89
2021/07/24 08:16:45;;;;;;;13.20;9.35;;;;;;;24.59;75.69;98950.04;4319837;80;21030;-88
2021/07/24 08:22:47;;;;;;;11.15;8.95;;;;;;;24.97;74.55;98945.91;4323005;80;21494;-86
2021/07/24 08:28:49;;;;;;;10.35;7.85;;;;;;;25.13;74.43;98942.73;4312375;80;21034;-86
2021/07/24 08:34:51;;;;;;;12.30;8.10;;;;;;;25.13;74.43;98942.73;4322037;80;21097;-85
2021/07/24 08:40:53;;;;;;;10.30;7.67;;;;;;;25.35;73.23;98940.47;4321273;81;21645;-86
2021/07/24 08:46:55;;;;;;;11.10;7.78;;;;;;;25.53;72.67;98929.92;4253823;82;21310;-86
2021/07/24 08:52:59;;;;;;;11.40;7.05;;;;;;;25.49;70.80;98922.95;4274644;81;21485;-84
2021/07/24 08:59:03;;;;;;;11.18;7.17;;;;;;;25.40;70.22;98934.22;4249855;81;21036;-86
2021/07/24 09:05:07;;;;;;;11.18;7.30;;;;;;;25.37;68.97;98930.33;4252078;82;20986;-87
2021/07/24 09:11:08;;;;;;;10.88;7.70;;;;;;;25.37;68.97;98930.33;4264164;82;21047;-85
2021/07/24 09:17:13;;;;;;;11.30;7.40;;;;;;;25.42;66.95;98921.27;4252680;82;21514;-86
2021/07/24 09:23:33;;;;;;;10.85;7.33;;;;;;;25.46;66.54;98921.10;4269307;82;21562;-87
2021/07/24 09:29:38;;;;;;;12.43;8.13;;;;;;;25.51;66.58;98908.59;4286915;81;21079;-87
2021/07/24 09:35:44;;;;;;;12.90;7.97;;;;;;;25.86;66.36;98903.98;4251504;81;21443;-88
2021/07/24 09:41:48;;;;;;;9.10;7.25;;;;;;;26.21;65.51;98898.56;4262006;81;21001;-87
2021/07/24 09:47:52;;;;;;;9.53;7.90;;;;;;;26.52;64.32;98898.86;4264464;81;21520;-88
2021/07/24 09:53:52;;;;;;;12.10;8.23;;;;;;;26.69;63.52;98904.16;4266764;81;21043;-87
2021/07/24 09:59:54;;;;;;;9.40;7.53;;;;;;;27.05;62.43;98900.90;4274196;81;21049;-86
2021/07/24 10:05:56;;;;;;;10.10;6.90;;;;;;;27.57;60.83;98894.89;4289281;81;21656;-87
2021/07/24 10:12:03;;;;;;;10.03;6.97;;;;;;;27.74;58.42;98888.05;4292400;81;21003;-88
2021/07/24 10:18:07;;;;;;;8.50;7.12;;;;;;;28.17;58.62;98881.41;4281095;81;21540;-86
2021/07/24 10:24:11;;;;;;;8.53;6.65;;;;;;;28.34;57.16;98874.69;4240835;82;21039;-88
2021/07/24 10:30:13;;;;;;;8.80;6.72;;;;;;;28.43;56.53;98866.06;4265042;82;21033;-84
2021/07/24 10:36:17;;;;;;;6.95;6.25;;;;;;;28.66;55.19;98860.77;4270913;81;21022;-85
2021/07/24 10:42:22;;;;;;;8.75;6.65;;;;;;;28.62;55.93;98853.20;4269301;82;21049;-84
2021/07/24 10:48:24;;;;;;;8.95;7.00;;;;;;;28.39;54.23;98871.16;4261173;82;21067;-85
2021/07/24 10:54:30;;;;;;;8.40;6.70;;;;;;;28.40;51.39;98867.69;4279670;81;21076;-85
2021/07/24 11:00:34;;;;;;;7.97;7.17;;;;;;;27.79;53.54;98862.81;4327069;81;21093;-85
2021/07/24 11:06:35;;;;;;;7.62;6.40;;;;;;;28.09;53.85;98859.98;4322875;80;21489;-84
2021/07/24 11:12:46;;;;;;;7.60;6.65;;;;;;;28.27;53.41;98864.52;4323483;81;21597;-85
2021/07/24 11:19:40;;;;;;;9.50;6.90;;;;;;;28.47;53.42;98864.44;4280683;81;21087;-86
2021/07/24 11:25:37;;;;;;;7.97;6.17;;;;;;;28.81;53.41;98857.20;4323248;81;21109;-84
2021/07/24 11:31:42;;;;;;;9.98;6.85;;;;;;;29.50;52.84;98848.78;4300530;80;21032;-87
2021/07/24 11:37:51;;;;;;;8.03;6.17;;;;;;;29.86;51.06;98850.73;4295362;81;21035;-83
2021/07/24 11:43:59;;;;;;;9.20;6.15;;;;;;;30.25;50.29;98852.25;4318372;81;21014;-87
2021/07/24 11:50:26;;;;;;;7.28;6.12;;;;;;;30.58;50.20;98850.86;4299065;80;21063;-86
2021/07/24 11:56:28;;;;;;;12.03;6.58;;;;;;;30.77;49.47;98849.09;4322897;80;21022;-86
2021/07/24 12:02:29;;;;;;;6.78;5.97;;;;;;;30.57;49.08;98843.68;4277887;81;21054;-86
2021/07/24 12:08:31;;;;;;;7.33;6.40;;;;;;;30.25;48.48;98834.67;4320383;81;21095;-86
2021/07/24 12:14:42;;;;;;;;;;;;;;;;;;;;;
2021/07/24 12:20:54;;;;;;;;;;;;;;;;;;;;;
2021/07/24 12:27:25;;;;;;;7.80;6.65;;;;;;;29.54;47.68;98832.38;4005080;83;20998;-85
2021/07/24 12:33:47;;;;;;;8.93;6.20;;;;;;;29.10;47.75;98823.70;4327506;80;21019;-86
2021/07/24 12:39:48;;;;;;;13.22;7.37;;;;;;;28.87;47.40;98824.82;4272052;81;21041;-87
2021/07/24 12:45:49;;;;;;;6.90;6.20;;;;;;;28.60;47.50;98816.94;4275644;80;21028;-86
2021/07/24 12:51:51;;;;;;;8.18;6.47;;;;;;;28.50;47.63;98817.01;4327678;80;21046;-86
2021/07/24 12:57:53;;;;;;;7.97;6.42;;;;;;;28.25;47.94;98818.57;4257620;82;21021;-86
2021/07/24 13:03:54;;;;;;;7.42;6.25;;;;;;;28.11;47.76;98815.88;4241670;82;21026;-87
2021/07/24 13:09:58;;;;;;;11.78;6.67;;;;;;;28.05;47.78;98808.02;4278758;81;21711;-86
2021/07/24 13:15:59;;;;;;;7.37;6.40;;;;;;;27.96;47.83;98811.75;4325469;80;21054;-87
2021/07/24 13:22:01;;;;;;;9.15;6.47;;;;;;;27.77;47.67;98811.16;4275653;81;21033;-84
2021/07/24 13:28:17;;;;;;;10.60;5.87;;;;;;;27.70;48.24;98803.14;4323246;81;21554;-86
2021/07/24 13:34:18;;;;;;;7.10;6.40;;;;;;;27.63;48.21;98797.96;4323586;81;21042;-86
2021/07/24 13:40:21;;;;;;;10.00;6.22;;;;;;;27.52;48.61;98798.59;4326039;81;21478;-86
2021/07/24 13:46:22;;;;;;;8.25;6.65;;;;;;;27.42;48.83;98790.94;4282181;81;21040;-86
2021/07/24 13:52:23;;;;;;;9.80;7.25;;;;;;;27.34;49.10;98801.05;4284282;81;21001;-89
2021/07/24 13:58:25;;;;;;;9.95;6.53;;;;;;;27.37;49.09;98791.66;4320899;81;21561;-85
2021/07/24 14:04:26;;;;;;;7.95;6.70;;;;;;;27.31;48.82;98792.20;4323758;81;21510;-86
2021/07/24 14:10:28;;;;;;;7.12;5.95;;;;;;;27.26;49.25;98799.95;4253418;82;21747;-86
2021/07/24 14:16:29;;;;;;;7.58;6.42;;;;;;;27.23;50.02;98795.30;4253775;83;21095;-86
2021/07/24 14:22:30;;;;;;;8.63;7.12;;;;;;;27.27;49.61;98798.69;4255645;82;21028;-86
2021/07/24 14:28:32;;;;;;;6.35;5.75;;;;;;;27.19;49.57;98806.58;4327630;80;20976;-86
2021/07/24 14:34:34;;;;;;;13.78;6.28;;;;;;;27.14;50.08;98809.45;4277562;81;21124;-86
2021/07/24 14:40:35;;;;;;;6.62;6.00;;;;;;;27.13;50.14;98806.52;4322899;80;20967;-86
2021/07/24 14:46:37;;;;;;;11.00;6.28;;;;;;;27.11;50.17;98794.98;4324385;80;21058;-86
2021/07/24 14:52:38;;;;;;;8.25;6.50;;;;;;;27.03;50.35;98794.51;4298409;80;21038;-85
2021/07/24 14:58:40;;;;;;;7.08;6.08;;;;;;;26.99;50.10;98806.56;4286392;81;21068;-86
2021/07/24 15:04:41;;;;;;;8.70;6.50;;;;;;;26.99;49.96;98793.30;4272063;81;21020;-85
2021/07/24 15:10:42;;;;;;;7.62;6.08;;;;;;;26.99;50.04;98794.70;4314116;81;20971;-86
2021/07/24 15:16:43;;;;;;;8.08;7.00;;;;;;;27.03;50.12;98795.27;4313032;81;20972;-87
2021/07/24 15:22:45;;;;;;;7.60;5.97;;;;;;;27.01;49.80;98795.00;4252176;82;21033;-86
2021/07/24 15:28:47;;;;;;;7.20;6.33;;;;;;;26.95;50.06;98787.11;4246721;83;21025;-85
2021/07/24 15:34:48;;;;;;;8.30;7.00;;;;;;;26.82;50.47;98783.88;4250536;82;21645;-86
2021/07/24 15:40:50;;;;;;;8.60;7.08;;;;;;;26.74;50.26;98777.12;4249650;84;21612;-85
2021/07/24 15:46:51;;;;;;;9.23;6.35;;;;;;;26.68;50.27;98776.89;4314464;81;21566;-86
2021/07/24 15:52:53;;;;;;;9.00;6.33;;;;;;;26.60;50.56;98770.10;4255410;82;22156;-86
2021/07/24 15:58:54;;;;;;;7.62;5.67;;;;;;;26.53;50.65;98770.53;4253928;82;21166;-86
2021/07/24 16:04:55;;;;;;;9.90;6.08;;;;;;;26.47;50.64;98775.28;4253828;82;21008;-86
2021/07/24 16:10:58;;;;;;;7.00;5.37;;;;;;;26.37;50.47;98771.81;4321272;80;21067;-84
2021/07/24 16:17:01;;;;;;;8.98;6.10;;;;;;;26.28;50.25;98769.75;4324978;80;21518;-85
2021/07/24 16:23:02;;;;;;;9.20;5.75;;;;;;;26.19;50.69;98765.00;4325526;80;21516;-84
2021/07/24 16:29:03;;;;;;;7.25;6.50;;;;;;;25.95;50.74;98740.49;4277651;81;21031;-85
2021/07/24 16:35:06;;;;;;;9.70;6.30;;;;;;;25.98;50.94;98757.75;4323962;80;21011;-86
2021/07/24 16:41:12;;;;;;;9.65;6.15;;;;;;;25.91;51.22;98744.89;4275898;81;21080;-87
2021/07/24 16:47:14;;;;;;;7.20;6.20;;;;;;;25.84;51.33;98743.86;4298259;81;21100;-86
2021/07/24 16:53:15;;;;;;;6.20;5.60;;;;;;;25.74;51.69;98743.04;4298834;81;21239;-86
2021/07/24 16:59:17;;;;;;;8.08;5.90;;;;;;;25.66;52.22;98737.66;4299226;81;21009;-85
2021/07/24 17:05:26;;;;;;;8.58;6.67;;;;;;;25.58;52.59;98738.68;4296571;81;21442;-85
2021/07/24 17:11:27;;;;;;;8.20;6.70;;;;;;;25.49;52.90;98736.59;4285192;81;22297;-84
2021/07/24 17:17:31;;;;;;;7.65;6.80;;;;;;;25.39;53.22;98747.72;4265696;82;20964;-85
2021/07/24 17:23:33;;;;;;;10.90;6.50;;;;;;;25.21;53.78;98736.03;4272149;82;21031;-85
2021/07/24 17:29:37;;;;;;;9.75;6.47;;;;;;;25.21;53.78;98736.03;4270153;83;21014;-85
2021/07/24 17:35:38;;;;;;;8.38;6.83;;;;;;;25.09;54.25;98732.09;4271819;81;21366;-85
2021/07/24 17:41:40;;;;;;;12.75;7.37;;;;;;;25.00;54.48;98736.33;4296759;81;21025;-84
2021/07/24 17:54:11;;;;;;;10.38;7.00;;;;;;;24.75;55.00;98732.00;4231580;82;21032;-85
2021/07/24 18:00:13;;;;;;;10.55;7.50;;;;;;;24.61;55.47;98736.88;4230935;82;21974;-85
2021/07/24 18:06:14;;;;;;;10.80;8.03;;;;;;;24.49;55.89;98742.83;4228259;82;21427;-86
2021/07/24 18:12:15;;;;;;;11.95;8.00;;;;;;;24.36;56.56;98743.70;4231259;82;21535;-86
2021/07/24 18:18:17;;;;;;;9.88;8.20;;;;;;;24.18;57.43;98747.95;4230206;82;21023;-85
2021/07/24 18:24:18;;;;;;;10.55;8.38;;;;;;;23.96;58.51;98755.00;4236248;81;21453;-85
2021/07/24 18:30:23;;;;;;;13.70;9.70;;;;;;;23.78;58.60;98764.81;4230224;82;21124;-85
2021/07/24 18:36:24;;;;;;;12.82;9.93;;;;;;;23.45;59.72;98752.75;4226837;82;21087;-86
2021/07/24 18:42:26;;;;;;;14.45;9.30;;;;;;;23.13;60.97;98762.52;4227334;82;21020;-85
2021/07/24 18:48:28;;;;;;;14.07;10.48;;;;;;;22.98;61.24;98769.92;4230268;82;21848;-87
2021/07/24 18:54:29;;;;;;;14.35;10.25;;;;;;;22.77;61.89;98772.98;4232963;82;21694;-84
2021/07/24 19:00:32;;;;;;;16.20;10.60;;;;;;;22.58;62.55;98774.17;4238367;82;21629;-85
2021/07/24 19:06:34;;;;;;;16.37;11.97;;;;;;;22.37;63.09;98778.41;4163230;84;21136;-85
2021/07/24 19:12:36;;;;;;;18.67;13.20;;;;;;;22.08;64.28;98768.22;4113783;84;21952;-85
2021/07/24 19:18:37;;;;;;;14.78;11.15;;;;;;;21.84;64.75;98764.36;4230136;82;21081;-85
2021/07/24 19:24:38;;;;;;;16.20;13.18;;;;;;;21.61;65.70;98760.78;4227382;82;22102;-82
2021/07/24 19:31:03;;;;;;;22.45;13.95;;;;;;;21.35;66.21;98767.72;4236509;82;21031;-84
2021/07/24 19:37:10;;;;;;;28.12;16.05;;;;;;;21.23;67.12;98763.59;4189930;82;21040;-84
2021/07/24 19:43:24;;;;;;;19.82;15.15;;;;;;;21.13;67.60;98758.56;4232490;82;21047;-85
2021/07/24 19:49:40;;;;;;;26.40;13.60;;;;;;;21.00;68.21;98750.09;4235220;81;21048;-84
2021/07/24 19:55:48;;;;;;;19.97;14.70;;;;;;;20.94;68.84;98756.05;4256350;83;21640;-84
2021/07/24 20:08:21;;;;;;;17.82;14.05;;;;;;;20.47;70.13;98755.24;4249967;83;21019;-84
2021/07/24 20:14:23;;;;;;;18.65;14.45;;;;;;;20.39;70.83;98752.52;4247213;83;21723;-84
2021/07/24 20:20:25;;;;;;;24.70;14.70;;;;;;;20.45;71.62;98757.69;4260964;82;22183;-84
2021/07/24 20:26:26;;;;;;;21.60;16.48;;;;;;;20.38;71.87;98771.80;4250282;82;20999;-84
2021/07/24 20:32:35;;;;;;;25.12;16.27;;;;;;;20.32;72.02;98768.81;4258535;83;21574;-82
2021/07/24 20:38:37;;;;;;;20.50;15.48;;;;;;;20.23;72.74;98765.92;4248151;82;21055;-84
2021/07/24 20:44:38;;;;;;;24.60;15.75;;;;;;;20.12;73.25;98769.61;4260275;82;21078;-84
2021/07/24 20:50:39;;;;;;;23.00;13.93;;;;;;;20.13;73.91;98784.48;4247574;82;21043;-84
2021/07/24 20:56:41;;;;;;;24.72;16.67;;;;;;;20.15;74.44;98783.41;4240125;83;21144;-85
2021/07/24 21:02:42;;;;;;;23.83;17.25;;;;;;;20.06;74.60;98786.05;4235078;83;21666;-88
2021/07/24 21:08:43;;;;;;;26.33;14.70;;;;;;;19.99;74.93;98796.59;4238380;82;21629;-84
2021/07/24 21:14:45;;;;;;;18.07;14.38;;;;;;;19.91;75.63;98808.53;4240349;83;21011;-84
2021/07/24 21:20:46;;;;;;;24.12;15.58;;;;;;;19.93;76.02;98818.60;4242239;83;21780;-84
2021/07/24 21:26:48;;;;;;;20.08;15.25;;;;;;;19.92;76.30;98822.58;4237564;84;21004;-84
2021/07/24 21:32:49;;;;;;;23.45;17.95;;;;;;;19.81;76.57;98829.05;4237407;82;21056;-84
2021/07/24 21:38:51;;;;;;;23.85;16.27;;;;;;;19.58;76.83;98834.08;4232286;84;21058;-83
2021/07/24 21:45:17;;;;;;;22.82;17.73;;;;;;;19.39;77.43;98838.56;4247198;84;21166;-83
2021/07/24 21:51:44;;;;;;;26.27;18.37;;;;;;;19.29;77.77;98847.17;4247018;83;21096;-83
2021/07/24 21:57:55;;;;;;;26.33;20.12;;;;;;;19.19;78.26;98855.91;4251582;83;21023;-83
2021/07/24 22:03:57;;;;;;;26.30;18.15;;;;;;;19.11;78.71;98856.52;4254739;82;21603;-83
2021/07/24 22:09:59;;;;;;;27.55;18.60;;;;;;;19.05;79.07;98861.82;4249513;82;21070;-83
2021/07/24 22:16:03;;;;;;;29.50;21.95;;;;;;;18.80;79.14;98853.33;4261750;82;21168;-83
2021/07/24 22:22:05;;;;;;;29.02;20.10;;;;;;;18.63;79.67;98846.22;4251701;83;21003;-84
2021/07/24 22:28:08;;;;;;;26.35;18.82;;;;;;;18.55;80.10;98842.05;4257570;82;21054;-84
2021/07/24 22:34:09;;;;;;;36.48;21.12;;;;;;;18.46;80.79;98844.02;4252251;82;21023;-83
2021/07/24 22:40:11;;;;;;;29.18;19.42;;;;;;;18.47;80.83;98843.41;4252184;82;21047;-83
2021/07/24 22:46:12;;;;;;;34.08;17.50;;;;;;;18.40;81.06;98844.98;4253976;82;21055;-84
2021/07/24 22:52:14;;;;;;;24.02;17.48;;;;;;;18.24;81.28;98841.54;4251278;82;21079;-83
2021/07/24 22:58:31;;;;;;;26.27;17.07;;;;;;;18.09;81.46;98840.86;4251777;82;21051;-84
2021/07/24 23:04:32;;;;;;;;;;;;;;;17.95;81.84;98836.41;4257632;82;21628;-83
2021/07/24 23:10:38;;;;;;;24.72;18.85;;;;;;;17.77;82.90;98827.70;4259520;83;20156;-85
2021/07/24 23:16:45;;;;;;;25.48;18.95;;;;;;;17.68;82.56;98820.55;4255799;83;21586;-83
2021/07/24 23:22:55;;;;;;;25.68;18.17;;;;;;;17.85;83.40;98812.52;4259728;82;21139;-83
2021/07/24 23:28:57;;;;;;;24.20;18.10;;;;;;;17.92;83.44;98807.41;4261430;83;21083;-84
2021/07/24 23:34:58;;;;;;;25.45;17.75;;;;;;;17.81;83.56;98810.41;4255013;82;21579;-83
2021/07/24 23:41:01;;;;;;;28.25;18.95;;;;;;;17.66;83.27;98818.05;4259554;83;20996;-83
2021/07/24 23:47:04;;;;;;;22.93;18.40;;;;;;;17.49;83.67;98808.11;4252596;83;20996;-82
2021/07/24 23:53:05;;;;;;;24.45;18.37;;;;;;;17.40;83.82;98806.48;4249482;82;21063;-83
2021/07/24 23:59:10;;;;;;;28.10;18.35;;;;;;;17.43;84.22;98805.00;4236288;82;21083;-82
